Time;durP1;ratioP1;P1;durP2;ratioP2;P2;SDS_P1;SDS_P2;PMS_P1;PMS_P2;Temp;Humidity;BMP_temperature;BMP_pressure;BME280_temperature;BME280_humidity;BME280_pressure;Samples;Min_cycle;Max_cycle;Signal;HPM_P1;HPM_P2
2022/10/24 00:00:05;;;;;;;;;;;;;;;;;;4994161;28;1306;-75
2022/10/24 00:02:31;;;;;;;;;;;;;;;;;;4994110;28;1068;-74
2022/10/24 00:04:57;;;;;;;;;;;;;;;;;;4994272;28;878;-74
2022/10/24 00:07:23;;;;;;;;;;;;;;;;;;4993767;28;1099;-74
2022/10/24 00:09:50;;;;;;;;;;;;;;;;;;4993974;28;1320;-73
2022/10/24 00:12:17;;;;;;;;;;;;;;;;;;4993494;28;1968;-75
2022/10/24 00:14:44;;;;;;;;;;;;;;;;;;4993860;28;1162;-77
2022/10/24 00:17:10;;;;;;;;;;;;;;;;;;4993953;28;779;-74
2022/10/24 00:19:37;;;;;;;;;;;;;;;;;;4992511;28;1431;-74
2022/10/24 00:22:03;;;;;;;;;;;;;;;;;;4993507;28;946;-74
2022/10/24 00:24:29;;;;;;;;;;;;;;;;;;4993789;28;783;-75
2022/10/24 00:26:55;;;;;;;;;;;;;;;;;;4993483;28;1131;-74
2022/10/24 00:29:22;;;;;;;;;;;;;;;;;;4993672;28;1315;-75
2022/10/24 00:31:49;;;;;;;;;;;;;;;;;;4992199;28;1973;-75
2022/10/24 00:34:15;;;;;;;;;;;;;;;;;;4992398;28;1108;-74
2022/10/24 00:36:41;;;;;;;;;;;;;;;;;;4993493;28;1291;-74
2022/10/24 00:39:08;;;;;;;;;;;;;;;;;;4992019;28;1461;-74
2022/10/24 00:41:35;;;;;;;;;;;;;;;;;;4993359;28;893;-74
2022/10/24 00:44:18;;;;;;;;;;;;;;;;;;4993109;28;1068;-75
2022/10/24 00:46:45;;;;;;;;;;;;;;;;;;4993520;28;1064;-75
2022/10/24 00:49:13;;;;;;;;;;;;;;;;;;4993332;28;1247;-74
2022/10/24 00:51:40;;;;;;;;;;;;;;;;;;4993417;28;1068;-75
2022/10/24 00:54:06;;;;;;;;;;;;;;;;;;4992036;28;1922;-75
2022/10/24 00:56:34;;;;;;;;;;;;;;;;;;4993233;28;1072;-76
2022/10/24 00:59:00;;;;;;;;;;;;;;;;;;4993342;28;1398;-74
2022/10/24 01:01:27;;;;;;;;;;;;;;;;;;4992407;28;1060;-74
2022/10/24 01:03:53;;;;;;;;;;;;;;;;;;4993395;28;1127;-77
2022/10/24 01:06:31;;;;;;;;;;;;;;;;;;4997350;28;1088;-74
2022/10/24 01:09:00;;;;;;;;;;;;;;;;;;4996426;28;1294;-75
2022/10/24 01:11:31;;;;;;;;;;;;;;;;;;4992741;28;1021;-75
2022/10/24 01:13:57;;;;;;;;;;;;;;;;;;4992833;28;1986;-71
2022/10/24 01:16:25;;;;;;;;;;;;;;;;;;4991087;28;1501;-77
2022/10/24 01:18:52;;;;;;;;;;;;;;;;;;4992433;28;1638;-74
2022/10/24 01:21:26;;;;;;;;;;;;;;;;;;4990699;28;922;-76
2022/10/24 01:23:54;;;;;;;;;;;;;;;;;;5061305;22;1983;-71
2022/10/24 01:26:40;;;;;;;;;;;;;;;;;;5091694;28;1156;-72
2022/10/24 01:29:07;;;;;;;;;;;;;;;;;;5091590;28;1079;-72
2022/10/24 01:31:35;;;;;;;;;;;;;;;;;;5091520;28;1067;-70
2022/10/24 01:34:02;;;;;;;;;;;;;;;;;;5091386;28;1984;-72
2022/10/24 01:36:29;;;;;;;;;;;;;;;;;;5091551;28;1064;-72
2022/10/24 01:38:56;;;;;;;;;;;;;;;;;;5091279;28;1127;-72
2022/10/24 01:41:23;;;;;;;;;;;;;;;;;;5090285;28;1324;-72
2022/10/24 01:43:50;;;;;;;;;;;;;;;;;;5100144;28;2057;-72
2022/10/24 01:46:18;;;;;;;;;;;;;;;;;;5090006;28;1283;-72
2022/10/24 01:48:46;;;;;;;;;;;;;;;;;;5091439;28;1008;-74
2022/10/24 01:51:13;;;;;;;;;;;;;;;;;;5091397;28;873;-72
2022/10/24 01:53:39;;;;;;;;;;;;;;;;;;5090826;28;1902;-72
2022/10/24 01:56:06;;;;;;;;;;;;;;;;;;5091004;28;1000;-72
2022/10/24 01:58:32;;;;;;;;;;;;;;;;;;5091312;28;1071;-72
2022/10/24 02:01:00;;;;;;;;;;;;;;;;;;5091032;28;798;-72
2022/10/24 02:03:27;;;;;;;;;;;;;;;;;;5090835;28;1449;-73
2022/10/24 02:05:56;;;;;;;;;;;;;;;;;;5091441;28;822;-74
2022/10/24 02:08:23;;;;;;;;;;;;;;;;;;5091067;28;1054;-73
2022/10/24 02:10:50;;;;;;;;;;;;;;;;;;5091173;28;968;-72
2022/10/24 02:13:28;;;;;;;;;;;;;;;;;;5090374;28;1918;-71
2022/10/24 02:15:55;;;;;;;;;;;;;;;;;;5090889;28;909;-73
2022/10/24 02:18:22;;;;;;;;;;;;;;;;;;5091027;28;1052;-72
2022/10/24 02:20:50;;;;;;;;;;;;;;;;;;5090989;28;779;-72
2022/10/24 02:23:19;;;;;;;;;;;;;;;;;;5090274;28;1403;-72
2022/10/24 02:25:46;;;;;;;;;;;;;;;;;;5091102;28;948;-72
2022/10/24 02:28:13;;;;;;;;;;;;;;;;;;5090836;28;1071;-70
2022/10/24 02:30:39;;;;;;;;;;;;;;;;;;5090686;28;837;-72
2022/10/24 02:33:06;;;;;;;;;;;;;;;;;;5088993;28;1918;-74
2022/10/24 02:35:32;;;;;;;;;;;;;;;;;;5090616;28;1079;-74
2022/10/24 02:38:00;;;;;;;;;;;;;;;;;;5090881;28;1067;-72
2022/10/24 02:40:27;;;;;;;;;;;;;;;;;;5090732;28;949;-73
2022/10/24 02:42:54;;;;;;;;;;;;;;;;;;5090206;28;1320;-72
2022/10/24 02:45:20;;;;;;;;;;;;;;;;;;5090681;28;1126;-72
2022/10/24 02:47:46;;;;;;;;;;;;;;;;;;5090564;28;818;-72
2022/10/24 02:50:12;;;;;;;;;;;;;;;;;;5090247;28;1079;-72
2022/10/24 02:52:39;;;;;;;;;;;;;;;;;;5090181;28;1918;-70
2022/10/24 02:55:05;;;;;;;;;;;;;;;;;;5090570;28;763;-72
2022/10/24 02:57:33;;;;;;;;;;;;;;;;;;5091874;28;1075;-72
2022/10/24 02:59:59;;;;;;;;;;;;;;;;;;5094517;28;1122;-72
2022/10/24 03:02:25;;;;;;;;;;;;;;;;;;5094580;28;785;-72
2022/10/24 03:04:51;;;;;;;;;;;;;;;;;;5094201;28;1336;-72
2022/10/24 03:07:18;;;;;;;;;;;;;;;;;;5093044;28;1111;-71
2022/10/24 03:09:44;;;;;;;;;;;;;;;;;;5094686;28;1107;-72
2022/10/24 03:12:10;;;;;;;;;;;;;;;;;;5094285;28;952;-72
2022/10/24 03:14:38;;;;;;;;;;;;;;;;;;5094219;28;1993;-71
2022/10/24 03:17:04;;;;;;;;;;;;;;;;;;5094199;28;1107;-72
2022/10/24 03:19:30;;;;;;;;;;;;;;;;;;5094590;28;790;-71
2022/10/24 03:21:56;;;;;;;;;;;;;;;;;;5094017;28;1075;-72
2022/10/24 03:24:22;;;;;;;;;;;;;;;;;;5092517;28;1398;-72
2022/10/24 03:26:51;;;;;;;;;;;;;;;;;;5098666;28;1514;-72
2022/10/24 03:29:17;;;;;;;;;;;;;;;;;;5114447;28;991;-72
2022/10/24 03:31:45;;;;;;;;;;;;;;;;;;5114342;28;873;-72
2022/10/24 03:34:11;;;;;;;;;;;;;;;;;;5112810;28;1988;-72
2022/10/24 03:36:37;;;;;;;;;;;;;;;;;;5114308;28;1075;-72
2022/10/24 03:39:03;;;;;;;;;;;;;;;;;;5113140;28;999;-71
2022/10/24 03:41:30;;;;;;;;;;;;;;;;;;5114145;28;790;-72
2022/10/24 03:43:56;;;;;;;;;;;;;;;;;;5114012;28;1249;-72
2022/10/24 03:46:22;;;;;;;;;;;;;;;;;;5114406;28;1054;-72
2022/10/24 03:48:50;;;;;;;;;;;;;;;;;;5114102;28;810;-72
2022/10/24 03:51:16;;;;;;;;;;;;;;;;;;5113809;28;1103;-73
2022/10/24 03:53:42;;;;;;;;;;;;;;;;;;5113771;28;1937;-74
2022/10/24 03:56:08;;;;;;;;;;;;;;;;;;5113963;28;1134;-73
2022/10/24 03:58:34;;;;;;;;;;;;;;;;;;5113156;28;1553;-72
2022/10/24 04:01:00;;;;;;;;;;;;;;;;;;5113969;28;956;-75
2022/10/24 04:03:27;;;;;;;;;;;;;;;;;;5113519;28;1268;-74
2022/10/24 04:05:54;;;;;;;;;;;;;;;;;;5113692;28;1138;-73
2022/10/24 04:08:21;;;;;;;;;;;;;;;;;;5114088;28;880;-72
2022/10/24 04:10:48;;;;;;;;;;;;;;;;;;5112767;28;1066;-72
2022/10/24 04:13:14;;;;;;;;;;;;;;;;;;5113111;27;1968;-72
2022/10/24 04:15:40;;;;;;;;;;;;;;;;;;5106234;28;1541;-70
2022/10/24 04:18:07;;;;;;;;;;;;;;;;;;5104898;28;1375;-72
2022/10/24 04:20:33;;;;;;;;;;;;;;;;;;5103991;28;1184;-71
2022/10/24 04:23:00;;;;;;;;;;;;;;;;;;5096300;28;1416;-70
2022/10/24 04:25:27;;;;;;;;;;;;;;;;;;5108053;28;1457;-71
2022/10/24 04:27:53;;;;;;;;;;;;;;;;;;5102850;28;1117;-73
2022/10/24 04:30:19;;;;;;;;;;;;;;;;;;5090938;28;1203;-73
2022/10/24 04:32:45;;;;;;;;;;;;;;;;;;5090567;28;1407;-71
2022/10/24 04:35:12;;;;;;;;;;;;;;;;;;5095679;28;1981;-72
2022/10/24 04:37:38;;;;;;;;;;;;;;;;;;5095050;28;1338;-72
2022/10/24 04:40:07;;;;;;;;;;;;;;;;;;5093722;28;1464;-71
2022/10/24 04:42:33;;;;;;;;;;;;;;;;;;5099594;28;1284;-71
2022/10/24 04:44:59;;;;;;;;;;;;;;;;;;5110922;28;1388;-72
2022/10/24 04:47:25;;;;;;;;;;;;;;;;;;5094427;28;1460;-71
2022/10/24 04:49:51;;;;;;;;;;;;;;;;;;5090764;28;1056;-71
2022/10/24 04:52:18;;;;;;;;;;;;;;;;;;5106239;28;1512;-71
2022/10/24 04:54:44;;;;;;;;;;;;;;;;;;5103559;28;1917;-71
2022/10/24 04:57:11;;;;;;;;;;;;;;;;;;5104318;28;1121;-70
2022/10/24 04:59:37;;;;;;;;;;;;;;;;;;5112779;28;1114;-70
2022/10/24 05:02:04;;;;;;;;;;;;;;;;;;5112369;28;897;-71
2022/10/24 05:04:30;;;;;;;;;;;;;;;;;;5112855;28;1369;-71
2022/10/24 05:06:56;;;;;;;;;;;;;;;;;;5112346;28;976;-71
2022/10/24 05:09:22;;;;;;;;;;;;;;;;;;5112810;28;893;-71
2022/10/24 05:11:48;;;;;;;;;;;;;;;;;;5112285;28;1079;-71
2022/10/24 05:14:16;;;;;;;;;;;;;;;;;;5108201;28;1914;-70
2022/10/24 05:16:42;;;;;;;;;;;;;;;;;;5096627;28;1501;-71
2022/10/24 05:19:08;;;;;;;;;;;;;;;;;;5100392;28;1369;-72
2022/10/24 05:21:34;;;;;;;;;;;;;;;;;;5091384;28;831;-71
2022/10/24 05:24:01;;;;;;;;;;;;;;;;;;5095068;28;1441;-70
2022/10/24 05:26:27;;;;;;;;;;;;;;;;;;5100214;28;1264;-71
2022/10/24 05:28:53;;;;;;;;;;;;;;;;;;5090808;28;1218;-71
2022/10/24 05:31:21;;;;;;;;;;;;;;;;;;5089903;28;1468;-70
2022/10/24 05:33:47;;;;;;;;;;;;;;;;;;5086155;28;1922;-71
2022/10/24 05:36:13;;;;;;;;;;;;;;;;;;5099120;28;1005;-70
2022/10/24 05:38:39;;;;;;;;;;;;;;;;;;5102706;28;1347;-69
2022/10/24 05:41:05;;;;;;;;;;;;;;;;;;5094321;28;1383;-70
2022/10/24 05:43:31;;;;;;;;;;;;;;;;;;5104519;28;1422;-68
2022/10/24 05:45:58;;;;;;;;;;;;;;;;;;5100031;28;1447;-69
2022/10/24 05:48:25;;;;;;;;;;;;;;;;;;5095422;28;1348;-70
2022/10/24 05:50:55;;;;;;;;;;;;;;;;;;5099582;28;1451;-69
2022/10/24 05:53:21;;;;;;;;;;;;;;;;;;5099538;28;1408;-71
2022/10/24 05:55:47;;;;;;;;;;;;;;;;;;5096611;28;1973;-70
2022/10/24 05:58:13;;;;;;;;;;;;;;;;;;5093883;28;1406;-72
2022/10/24 06:00:39;;;;;;;;;;;;;;;;;;5100119;28;1418;-72
2022/10/24 06:03:06;;;;;;;;;;;;;;;;;;5096410;28;1502;-72
2022/10/24 06:05:33;;;;;;;;;;;;;;;;;;5096335;28;1280;-72
2022/10/24 06:07:59;;;;;;;;;;;;;;;;;;5090756;28;1146;-72
2022/10/24 06:10:25;;;;;;;;;;;;;;;;;;5091143;28;1071;-72
2022/10/24 06:12:52;;;;;;;;;;;;;;;;;;5092440;28;1541;-72
2022/10/24 06:15:18;;;;;;;;;;;;;;;;;;5110492;28;1956;-71
2022/10/24 06:17:44;;;;;;;;;;;;;;;;;;5111241;28;949;-71
2022/10/24 06:20:10;;;;;;;;;;;;;;;;;;5110777;28;1102;-71
2022/10/24 06:22:38;;;;;;;;;;;;;;;;;;5103540;28;1593;-71
2022/10/24 06:25:04;;;;;;;;;;;;;;;;;;5098712;28;1152;-71
2022/10/24 06:27:31;;;;;;;;;;;;;;;;;;5090294;28;1146;-74
2022/10/24 06:29:57;;;;;;;;;;;;;;;;;;5091085;28;1131;-72
2022/10/24 06:32:23;;;;;;;;;;;;;;;;;;5100566;27;1417;-73
2022/10/24 06:34:50;;;;;;;;;;;;;;;;;;5110784;28;1993;-72
2022/10/24 06:37:16;;;;;;;;;;;;;;;;;;5106898;28;1422;-72
2022/10/24 06:39:43;;;;;;;;;;;;;;;;;;5098741;28;1203;-72
2022/10/24 06:42:09;;;;;;;;;;;;;;;;;;5090744;28;1432;-72
2022/10/24 06:44:37;;;;;;;;;;;;;;;;;;5101824;28;1407;-73
2022/10/24 06:47:03;;;;;;;;;;;;;;;;;;5108295;28;1464;-72
2022/10/24 06:49:29;;;;;;;;;;;;;;;;;;5097150;28;1236;-73
2022/10/24 06:51:56;;;;;;;;;;;;;;;;;;5103722;28;1406;-72
2022/10/24 06:54:22;;;;;;;;;;;;;;;;;;5110156;28;1917;-72
2022/10/24 06:56:49;;;;;;;;;;;;;;;;;;5105328;28;1418;-72
2022/10/24 06:59:17;;;;;;;;;;;;;;;;;;5097565;28;1294;-73
2022/10/24 07:01:43;;;;;;;;;;;;;;;;;;5090560;28;1513;-72
2022/10/24 07:04:09;;;;;;;;;;;;;;;;;;5093477;28;1487;-70
2022/10/24 07:06:36;;;;;;;;;;;;;;;;;;5090169;28;1058;-72
2022/10/24 07:09:02;;;;;;;;;;;;;;;;;;5100484;28;1405;-71
2022/10/24 07:11:29;;;;;;;;;;;;;;;;;;5090174;28;1108;-72
2022/10/24 07:13:56;;;;;;;;;;;;;;;;;;5089546;28;1964;-72
2022/10/24 07:16:23;;;;;;;;;;;;;;;;;;5090112;28;1059;-71
2022/10/24 07:18:49;;;;;;;;;;;;;;;;;;5101185;28;1480;-72
2022/10/24 07:21:16;;;;;;;;;;;;;;;;;;5090468;28;1117;-73
2022/10/24 07:23:42;;;;;;;;;;;;;;;;;;5089716;28;1379;-72
2022/10/24 07:26:09;;;;;;;;;;;;;;;;;;5089890;28;1016;-72
2022/10/24 07:28:36;;;;;;;;;;;;;;;;;;5094852;28;1405;-72
2022/10/24 07:31:04;;;;;;;;;;;;;;;;;;5095345;28;1410;-72
2022/10/24 07:33:30;;;;;;;;;;;;;;;;;;5098223;22;1824;-72
2022/10/24 07:35:56;;;;;;;;;;;;;;;;;;5048442;28;1989;-74
2022/10/24 07:38:23;;;;;;;;;;;;;;;;;;5049712;28;1519;-73
2022/10/24 07:40:49;;;;;;;;;;;;;;;;;;5046020;28;1217;-72
2022/10/24 07:43:15;;;;;;;;;;;;;;;;;;5050800;28;1315;-74
2022/10/24 07:45:41;;;;;;;;;;;;;;;;;;5053417;28;1052;-73
2022/10/24 07:48:09;;;;;;;;;;;;;;;;;;5054493;28;2025;-74
2022/10/24 07:50:40;;;;;;;;;;;;;;;;;;5053341;28;1694;-73
2022/10/24 07:53:06;;;;;;;;;;;;;;;;;;5055254;28;1403;-75
2022/10/24 07:55:32;;;;;;;;;;;;;;;;;;5045148;28;1914;-74
2022/10/24 07:57:59;;;;;;;;;;;;;;;;;;5053841;28;956;-75
2022/10/24 08:00:25;;;;;;;;;;;;;;;;;;5054429;28;734;-74
2022/10/24 08:02:51;;;;;;;;;;;;;;;;;;5045143;28;1500;-75
2022/10/24 08:05:19;;;;;;;;;;;;;;;;;;5056137;28;1640;-73
2022/10/24 08:07:45;;;;;;;;;;;;;;;;;;5052065;28;1417;-73
2022/10/24 08:10:11;;;;;;;;;;;;;;;;;;5049158;28;1405;-73
2022/10/24 08:12:37;;;;;;;;;;;;;;;;;;5049526;28;1433;-73
2022/10/24 08:15:04;;;;;;;;;;;;;;;;;;5053355;28;1975;-73
2022/10/24 08:17:30;;;;;;;;;;;;;;;;;;5049663;28;1406;-76
2022/10/24 08:19:56;;;;;;;;;;;;;;;;;;5041863;28;1399;-71
2022/10/24 08:22:24;;;;;;;;;;;;;;;;;;5052869;28;1677;-75
2022/10/24 08:24:50;;;;;;;;;;;;;;;;;;5044804;28;1429;-74
2022/10/24 08:27:16;;;;;;;;;;;;;;;;;;5051874;28;1524;-73
2022/10/24 08:29:42;;;;;;;;;;;;;;;;;;5048702;28;1440;-75
2022/10/24 08:32:08;;;;;;;;;;;;;;;;;;5046882;28;1445;-74
2022/10/24 08:34:35;;;;;;;;;;;;;;;;;;5048152;28;1922;-74
2022/10/24 08:37:01;;;;;;;;;;;;;;;;;;5051712;28;1478;-73
2022/10/24 08:39:28;;;;;;;;;;;;;;;;;;5052883;28;1386;-73
2022/10/24 08:41:55;;;;;;;;;;;;;;;;;;5075525;28;1498;-73
2022/10/24 08:44:24;;;;;;;;;;;;;;;;;;5043413;28;1139;-75
2022/10/24 08:46:51;;;;;;;;;;;;;;;;;;5052176;28;1450;-74
2022/10/24 08:49:19;;;;;;;;;;;;;;;;;;5060482;28;1356;-75
2022/10/24 08:51:46;;;;;;;;;;;;;;;;;;5053280;28;1524;-76
2022/10/24 08:54:13;;;;;;;;;;;;;;;;;;5044514;28;1331;-75
2022/10/24 08:56:41;;;;;;;;;;;;;;;;;;5049177;28;1942;-75
2022/10/24 08:59:07;;;;;;;;;;;;;;;;;;5050589;28;1459;-75
2022/10/24 09:01:35;;;;;;;;;;;;;;;;;;5051968;28;1145;-75
2022/10/24 09:04:03;;;;;;;;;;;;;;;;;;5049425;28;1402;-75
2022/10/24 09:06:30;;;;;;;;;;;;;;;;;;5076444;28;1438;-75
2022/10/24 09:08:57;;;;;;;;;;;;;;;;;;5051140;28;1387;-75
2022/10/24 09:11:24;;;;;;;;;;;;;;;;;;5051872;28;1133;-76
2022/10/24 09:13:52;;;;;;;;;;;;;;;;;;5051881;28;1380;-75
2022/10/24 09:16:20;;;;;;;;;;;;;;;;;;5051092;28;1985;-75
2022/10/24 09:18:46;;;;;;;;;;;;;;;;;;5043283;28;1205;-76
2022/10/24 09:21:13;;;;;;;;;;;;;;;;;;5050358;28;1499;-74
2022/10/24 09:23:39;;;;;;;;;;;;;;;;;;5051734;28;1290;-75
2022/10/24 09:26:07;;;;;;;;;;;;;;;;;;5051483;28;1087;-75
2022/10/24 09:28:34;;;;;;;;;;;;;;;;;;5042287;28;1672;-75
2022/10/24 09:31:03;;;;;;;;;;;;;;;;;;5048733;28;1127;-75
2022/10/24 09:33:30;;;;;;;;;;;;;;;;;;5051132;28;1228;-73
2022/10/24 09:35:56;;;;;;;;;;;;;;;;;;5051430;28;1914;-76
2022/10/24 09:38:30;;;;;;;;;;;;;;;;;;5041159;28;1474;-75
2022/10/24 09:40:57;;;;;;;;;;;;;;;;;;5051097;28;1239;-76
2022/10/24 09:43:24;;;;;;;;;;;;;;;;;;5049969;28;1410;-75
2022/10/24 09:45:50;;;;;;;;;;;;;;;;;;5050488;28;1382;-75
2022/10/24 09:48:22;;;;;;;;;;;;;;;;;;5074625;28;1423;-75
2022/10/24 09:50:49;;;;;;;;;;;;;;;;;;5053030;28;1469;-75
2022/10/24 09:53:21;;;;;;;;;;;;;;;;;;5044066;28;1499;-75
2022/10/24 09:55:47;;;;;;;;;;;;;;;;;;5039875;28;1910;-74
2022/10/24 09:58:18;;;;;;;;;;;;;;;;;;5050592;28;1142;-74
2022/10/24 10:00:44;;;;;;;;;;;;;;;;;;5050941;28;1068;-74
2022/10/24 10:03:20;;;;;;;;;;;;;;;;;;5050697;28;2079;-75
2022/10/24 10:05:47;;;;;;;;;;;;;;;;;;5043471;28;1480;-75
2022/10/24 10:08:19;;;;;;;;;;;;;;;;;;5049646;28;1159;-74
2022/10/24 10:10:54;;;;;;;;;;;;;;;;;;5049594;28;1293;-74
2022/10/24 10:13:23;;;;;;;;;;;;;;;;;;5048631;28;1485;-75
2022/10/24 10:15:50;;;;;;;;;;;;;;;;;;5045073;28;1925;-74
2022/10/24 10:18:24;;;;;;;;;;;;;;;;;;5049347;28;1221;-74
2022/10/24 10:20:59;;;;;;;;;;;;;;;;;;5050996;28;1674;-75
2022/10/24 10:23:26;;;;;;;;;;;;;;;;;;5046911;28;1598;-74
2022/10/24 10:26:06;;;;;;;;;;;;;;;;;;5041348;28;1149;-73
2022/10/24 10:28:34;;;;;;;;;;;;;;;;;;5042940;28;1176;-74
2022/10/24 10:31:00;;;;;;;;;;;;;;;;;;5049967;28;1250;-73
2022/10/24 10:33:28;;;;;;;;;;;;;;;;;;5049154;28;1408;-74
2022/10/24 10:35:56;;;;;;;;;;;;;;;;;;5050195;28;1981;-74
2022/10/24 10:38:33;;;;;;;;;;;;;;;;;;5050073;28;995;-74
2022/10/24 10:41:00;;;;;;;;;;;;;;;;;;5050308;28;1067;-72
2022/10/24 10:43:28;;;;;;;;;;;;;;;;;;5049959;28;1274;-74
2022/10/24 10:45:56;;;;;;;;;;;;;;;;;;5049688;28;1076;-74
2022/10/24 10:48:27;;;;;;;;;;;;;;;;;;5049849;28;1106;-75
2022/10/24 10:50:55;;;;;;;;;;;;;;;;;;5040388;28;1609;-74
2022/10/24 10:53:25;;;;;;;;;;;;;;;;;;5049237;28;1282;-74
2022/10/24 10:55:54;;;;;;;;;;;;;;;;;;5049614;28;1907;-74
2022/10/24 10:58:23;;;;;;;;;;;;;;;;;;5044717;28;794;-74
2022/10/24 11:00:51;;;;;;;;;;;;;;;;;;5038689;28;1458;-73
2022/10/24 11:03:21;;;;;;;;;;;;;;;;;;5042806;28;1361;-74
2022/10/24 11:05:50;;;;;;;;;;;;;;;;;;5049435;28;1201;-73
2022/10/24 11:08:23;;;;;;;;;;;;;;;;;;5049296;28;913;-74
2022/10/24 11:10:51;;;;;;;;;;;;;;;;;;5049261;28;1503;-74
2022/10/24 11:13:19;;;;;;;;;;;;;;;;;;5048686;28;1400;-74
2022/10/24 11:15:46;;;;;;;;;;;;;;;;;;5080038;28;1993;-73
2022/10/24 11:18:12;;;;;;;;;;;;;;;;;;5048841;28;1119;-74
2022/10/24 11:20:39;;;;;;;;;;;;;;;;;;5052977;28;819;-73
2022/10/24 11:23:07;;;;;;;;;;;;;;;;;;5051924;28;1320;-76
2022/10/24 11:25:35;;;;;;;;;;;;;;;;;;5046459;28;1459;-74
2022/10/24 11:28:02;;;;;;;;;;;;;;;;;;5049810;28;1143;-75
2022/10/24 11:30:34;;;;;;;;;;;;;;;;;;5052372;28;1087;-77
2022/10/24 11:33:01;;;;;;;;;;;;;;;;;;5017829;28;989110;-72
2022/10/24 11:35:28;;;;;;;;;;;;;;;;;;5060442;28;1910;-74
2022/10/24 11:37:56;;;;;;;;;;;;;;;;;;5053764;28;1174;-74
2022/10/24 11:40:23;;;;;;;;;;;;;;;;;;5045081;28;1485;-75
2022/10/24 11:42:50;;;;;;;;;;;;;;;;;;5052000;28;1517;-74
2022/10/24 11:45:17;;;;;;;;;;;;;;;;;;5049842;28;1816;-73
2022/10/24 11:47:54;;;;;;;;;;;;;;;;;;5048705;28;1391;-75
2022/10/24 11:50:21;;;;;;;;;;;;;;;;;;5052256;28;1127;-75
2022/10/24 11:52:48;;;;;;;;;;;;;;;;;;5052557;28;1404;-75
2022/10/24 11:55:16;;;;;;;;;;;;;;;;;;5050256;28;1476;-74
2022/10/24 11:57:42;;;;;;;;;;;;;;;;;;5048018;28;1919;-73
2022/10/24 12:00:14;;;;;;;;;;;;;;;;;;5050854;28;1029;-73
2022/10/24 12:03:07;;;;;;;;;;;;;;;;;;5052859;28;1451;-74
2022/10/24 12:05:47;;;;;;;;;;;;;;;;;;5028865;28;1366;-74
2022/10/24 12:08:28;;;;;;;;;;;;;;;;;;5053257;28;889;-74
2022/10/24 12:11:01;;;;;;;;;;;;;;;;;;5051528;28;1029;-73
2022/10/24 12:13:31;;;;;;;;;;;;;;;;;;5047349;28;1345;-73
2022/10/24 12:15:59;;;;;;;;;;;;;;;;;;5049974;28;1973;-74
2022/10/24 12:18:27;;;;;;;;;;;;;;;;;;5051892;28;1385;-75
2022/10/24 12:20:55;;;;;;;;;;;;;;;;;;5065119;28;1254;-75
2022/10/24 12:23:22;;;;;;;;;;;;;;;;;;5067210;28;1323;-75
2022/10/24 12:25:51;;;;;;;;;;;;;;;;;;5044812;28;1466;-74
2022/10/24 12:28:18;;;;;;;;;;;;;;;;;;5043254;28;1253;-73
2022/10/24 12:30:45;;;;;;;;;;;;;;;;;;5051736;28;1122;-73
2022/10/24 12:33:19;;;;;;;;;;;;;;;;;;5048747;28;1414;-72
2022/10/24 12:35:47;;;;;;;;;;;;;;;;;;5044268;28;1975;-73
2022/10/24 12:38:16;;;;;;;;;;;;;;;;;;5052403;28;1130;-73
2022/10/24 12:40:46;;;;;;;;;;;;;;;;;;5051191;28;1459;-73
2022/10/24 12:43:17;;;;;;;;;;;;;;;;;;5048974;28;1484;-72
2022/10/24 12:45:43;;;;;;;;;;;;;;;;;;5052606;28;1321;-74
2022/10/24 12:48:14;;;;;;;;;;;;;;;;;;5052438;28;1072;-73
2022/10/24 12:51:02;;;;;;;;;;;;;;;;;;5050651;28;1897;-73
2022/10/24 12:53:39;;;;;;;;;;;;;;;;;;5037416;28;1315;-74
2022/10/24 12:56:13;;;;;;;;;;;;;;;;;;5053593;28;1922;-74
2022/10/24 12:58:41;;;;;;;;;;;;;;;;;;5085092;28;1094;-74
2022/10/24 13:01:09;;;;;;;;;;;;;;;;;;5049820;28;1415;-73
2022/10/24 13:03:42;;;;;;;;;;;;;;;;;;5046006;28;1377;-73
2022/10/24 13:06:09;;;;;;;;;;;;;;;;;;5050702;28;1449;-73
2022/10/24 13:08:43;;;;;;;;;;;;;;;;;;5052018;28;1146;-73
2022/10/24 13:11:12;;;;;;;;;;;;;;;;;;5050315;28;1186;-72
2022/10/24 13:13:43;;;;;;;;;;;;;;;;;;5051272;28;1460;-75
2022/10/24 13:16:14;;;;;;;;;;;;;;;;;;5051605;28;1918;-73
2022/10/24 13:18:43;;;;;;;;;;;;;;;;;;5077472;28;1415;-74
2022/10/24 13:21:14;;;;;;;;;;;;;;;;;;5049038;28;1829;-73
2022/10/24 13:23:41;;;;;;;;;;;;;;;;;;5045301;28;1374;-75
2022/10/24 13:26:08;;;;;;;;;;;;;;;;;;5032908;28;941;-76
2022/10/24 13:28:37;;;;;;;;;;;;;;;;;;5033517;28;1059;-75
2022/10/24 13:31:22;;;;;;;;;;;;;;;;;;5045705;28;1569;-76
2022/10/24 13:33:49;;;;;;;;;;;;;;;;;;5055621;28;1392;-74
2022/10/24 13:36:16;;;;;;;;;;;;;;;;;;5042194;28;1910;-75
2022/10/24 13:38:45;;;;;;;;;;;;;;;;;;5043181;28;1030;-75
2022/10/24 13:41:17;;;;;;;;;;;;;;;;;;5046450;28;1390;-75
2022/10/24 13:43:44;;;;;;;;;;;;;;;;;;5094549;22;2013;-75
2022/10/24 13:46:10;;;;;;;;;;;;;;;;;;5070005;28;1117;-75
2022/10/24 13:48:38;;;;;;;;;;;;;;;;;;5072170;28;1075;-75
2022/10/24 13:51:05;;;;;;;;;;;;;;;;;;5073441;28;1481;-74
2022/10/24 13:53:33;;;;;;;;;;;;;;;;;;5080999;28;1425;-75
2022/10/24 13:55:59;;;;;;;;;;;;;;;;;;5087101;28;1283;-74
2022/10/24 13:58:27;;;;;;;;;;;;;;;;;;5078762;28;1980;-74
2022/10/24 14:00:54;;;;;;;;;;;;;;;;;;5065939;28;1485;-74
2022/10/24 14:03:22;;;;;;;;;;;;;;;;;;5080891;28;1453;-74
2022/10/24 14:05:49;;;;;;;;;;;;;;;;;;5084377;28;1188;-75
2022/10/24 14:08:19;;;;;;;;;;;;;;;;;;5093557;28;1261;-75
2022/10/24 14:10:45;;;;;;;;;;;;;;;;;;5085171;28;1407;-75
2022/10/24 14:13:13;;;;;;;;;;;;;;;;;;5087092;28;1469;-74
2022/10/24 14:15:45;;;;;;;;;;;;;;;;;;5075931;28;1460;-75
2022/10/24 14:18:13;;;;;;;;;;;;;;;;;;5075043;28;1910;-74
2022/10/24 14:20:39;;;;;;;;;;;;;;;;;;5090930;28;1390;-75
2022/10/24 14:23:15;;;;;;;;;;;;;;;;;;5088364;28;1398;-73
2022/10/24 14:25:41;;;;;;;;;;;;;;;;;;5090280;28;1300;-75
2022/10/24 14:28:09;;;;;;;;;;;;;;;;;;5092574;28;1090;-75
2022/10/24 14:30:35;;;;;;;;;;;;;;;;;;5091035;28;975;-74
2022/10/24 14:33:19;;;;;;;;;;;;;;;;;;5082946;28;1067;-76
2022/10/24 14:35:45;;;;;;;;;;;;;;;;;;5070628;28;1469;-76
2022/10/24 14:38:12;;;;;;;;;;;;;;;;;;5069303;28;1969;-75
2022/10/24 14:40:38;;;;;;;;;;;;;;;;;;5070600;28;1135;-75
2022/10/24 14:43:04;;;;;;;;;;;;;;;;;;5071103;28;1514;-74
2022/10/24 14:45:31;;;;;;;;;;;;;;;;;;5080251;28;1338;-74
2022/10/24 14:47:57;;;;;;;;;;;;;;;;;;5079231;28;1346;-75
2022/10/24 14:50:35;;;;;;;;;;;;;;;;;;5074267;28;1377;-76
2022/10/24 14:53:01;;;;;;;;;;;;;;;;;;5083237;28;1389;-76
2022/10/24 14:55:27;;;;;;;;;;;;;;;;;;5066711;28;1426;-76
2022/10/24 14:57:53;;;;;;;;;;;;;;;;;;5066924;28;1918;-76
2022/10/24 15:00:20;;;;;;;;;;;;;;;;;;5069149;28;1580;-75
2022/10/24 15:02:47;;;;;;;;;;;;;;;;;;5073451;28;1330;-76
2022/10/24 15:05:31;;;;;;;;;;;;;;;;;;5082871;28;1620;-75
2022/10/24 15:08:02;;;;;;;;;;;;;;;;;;5077169;28;1362;-76
2022/10/24 15:10:33;;;;;;;;;;;;;;;;;;5079812;28;1377;-76
2022/10/24 15:13:00;;;;;;;;;;;;;;;;;;5075610;28;1460;-76
2022/10/24 15:15:27;;;;;;;;;;;;;;;;;;5077797;28;1504;-75
2022/10/24 15:17:53;;;;;;;;;;;;;;;;;;5082363;28;1975;-76
2022/10/24 15:20:20;;;;;;;;;;;;;;;;;;5068854;28;1453;-75
2022/10/24 15:22:47;;;;;;;;;;;;;;;;;;5084945;28;1428;-75
2022/10/24 15:25:19;;;;;;;;;;;;;;;;;;5081122;28;1404;-75
2022/10/24 15:27:45;;;;;;;;;;;;;;;;;;5080421;28;1599;-74
2022/10/24 15:30:13;;;;;;;;;;;;;;;;;;5082313;28;1394;-75
2022/10/24 15:32:39;;;;;;;;;;;;;;;;;;5079423;28;1766;-74
2022/10/24 15:35:05;;;;;;;;;;;;;;;;;;5083168;28;1448;-75
2022/10/24 15:37:32;;;;;;;;;;;;;;;;;;5078725;28;1910;-77
2022/10/24 15:39:58;;;;;;;;;;;;;;;;;;5081691;28;1429;-76
2022/10/24 15:42:26;;;;;;;;;;;;;;;;;;5081100;28;1413;-75
2022/10/24 15:44:52;;;;;;;;;;;;;;;;;;5079094;28;1458;-76
2022/10/24 15:47:22;;;;;;;;;;;;;;;;;;5078563;28;1350;-76
2022/10/24 15:49:48;;;;;;;;;;;;;;;;;;5084943;28;1330;-74
2022/10/24 15:52:15;;;;;;;;;;;;;;;;;;5081854;28;1674;-75
2022/10/24 15:54:41;;;;;;;;;;;;;;;;;;5080893;28;1474;-76
2022/10/24 15:57:08;;;;;;;;;;;;;;;;;;5071873;28;1918;-75
2022/10/24 15:59:36;;;;;;;;;;;;;;;;;;5077242;28;1480;-74
2022/10/24 16:02:02;;;;;;;;;;;;;;;;;;5074174;28;1409;-73
2022/10/24 16:04:30;;;;;;;;;;;;;;;;;;5083289;28;1412;-76
2022/10/24 16:06:57;;;;;;;;;;;;;;;;;;5070436;28;1424;-74
2022/10/24 16:09:24;;;;;;;;;;;;;;;;;;5067337;28;1525;-75
2022/10/24 16:11:50;;;;;;;;;;;;;;;;;;5080859;28;1373;-74
2022/10/24 16:14:17;;;;;;;;;;;;;;;;;;5069473;28;1735;-75
2022/10/24 16:16:45;;;;;;;;;;;;;;;;;;5075261;28;1407;-75
2022/10/24 16:19:11;;;;;;;;;;;;;;;;;;5082790;28;1987;-76
2022/10/24 16:21:38;;;;;;;;;;;;;;;;;;5074318;28;1417;-73
2022/10/24 16:24:04;;;;;;;;;;;;;;;;;;5079570;28;1401;-74
2022/10/24 16:26:31;;;;;;;;;;;;;;;;;;5081328;28;1420;-73
2022/10/24 16:28:57;;;;;;;;;;;;;;;;;;5078362;28;1379;-73
2022/10/24 16:31:23;;;;;;;;;;;;;;;;;;5073240;28;1552;-72
2022/10/24 16:33:50;;;;;;;;;;;;;;;;;;5077989;28;1392;-73
2022/10/24 16:36:17;;;;;;;;;;;;;;;;;;5067584;28;1377;-74
2022/10/24 16:38:44;;;;;;;;;;;;;;;;;;5078734;28;1981;-72
2022/10/24 16:41:13;;;;;;;;;;;;;;;;;;5080173;28;1394;-73
2022/10/24 16:43:39;;;;;;;;;;;;;;;;;;5082531;28;1379;-73
2022/10/24 16:46:06;;;;;;;;;;;;;;;;;;5091066;28;1091;-74
2022/10/24 16:48:32;;;;;;;;;;;;;;;;;;5091160;28;786;-74
2022/10/24 16:51:00;;;;;;;;;;;;;;;;;;5080248;28;1445;-73
2022/10/24 16:53:26;;;;;;;;;;;;;;;;;;5070945;28;1364;-75
2022/10/24 16:55:53;;;;;;;;;;;;;;;;;;5049849;28;1139;-73
2022/10/24 16:58:19;;;;;;;;;;;;;;;;;;5050867;28;1963;-71
2022/10/24 17:00:46;;;;;;;;;;;;;;;;;;5064765;28;1418;-73
2022/10/24 17:03:12;;;;;;;;;;;;;;;;;;5079458;28;1353;-74
2022/10/24 17:05:38;;;;;;;;;;;;;;;;;;5070314;28;1165;-74
2022/10/24 17:08:06;;;;;;;;;;;;;;;;;;5070326;28;1145;-74